createdAt,value
2023-05-22T03:29:52.963Z,15.03
2023-05-22T03:32:21.664Z,15.13
2023-05-22T03:34:53.102Z,15.15
2023-05-22T03:37:20.252Z,15.16
2023-05-22T03:39:48.337Z,15.16
2023-05-22T03:42:27.978Z,15.14
2023-05-22T03:44:57.210Z,15.13
2023-05-22T03:47:27.167Z,15.16
2023-05-22T03:49:55.632Z,15.17
2023-05-22T03:52:25.799Z,15.21
2023-05-22T03:54:54.021Z,15.25
2023-05-22T03:57:21.407Z,15.27
2023-05-22T03:59:50.231Z,15.31
2023-05-22T04:02:18.446Z,15.34
2023-05-22T04:04:48.707Z,15.36
2023-05-22T04:07:18.692Z,15.36
2023-05-22T04:09:46.859Z,15.36
2023-05-22T04:12:14.357Z,15.35
2023-05-22T04:14:43.459Z,15.34
2023-05-22T04:17:12.027Z,15.33
2023-05-22T04:19:39.521Z,15.35
2023-05-22T04:22:07.547Z,15.34
2023-05-22T04:24:36.777Z,15.33
2023-05-22T04:27:04.519Z,15.31
2023-05-22T04:29:33.252Z,15.28
2023-05-22T04:32:02.722Z,15.26
2023-05-22T04:34:30.914Z,15.26
2023-05-22T04:36:58.452Z,15.27
2023-05-22T04:39:26.947Z,15.30
2023-05-22T04:41:55.462Z,15.34
2023-05-22T04:44:24.014Z,15.37
2023-05-22T04:46:53.088Z,15.40
2023-05-22T04:49:20.882Z,15.44
2023-05-22T04:51:49.097Z,15.47
2023-05-22T04:54:17.439Z,15.51
2023-05-22T04:56:45.593Z,15.54
2023-05-22T04:59:16.646Z,15.58
2023-05-22T05:01:48.306Z,15.64
2023-05-22T05:04:16.654Z,15.66
2023-05-22T05:06:45.668Z,15.66
2023-05-22T05:09:13.457Z,15.66
2023-05-22T05:11:40.916Z,15.66
2023-05-22T05:14:09.626Z,15.66
2023-05-22T05:16:37.469Z,15.68
2023-05-22T05:19:04.659Z,15.72
2023-05-22T05:21:32.347Z,15.77
2023-05-22T05:24:03.294Z,15.82
2023-05-22T05:26:31.286Z,15.88
2023-05-22T05:29:00.149Z,15.94
2023-05-22T05:31:37.167Z,16.01
2023-05-22T05:34:14.775Z,16.12
2023-05-22T05:37:06.549Z,16.28
2023-05-22T05:39:33.890Z,16.42
2023-05-22T05:42:04.539Z,16.56
2023-05-22T05:44:32.400Z,16.65
2023-05-22T05:47:01.503Z,16.72
2023-05-22T05:49:29.577Z,16.78
2023-05-22T05:51:57.558Z,16.85
2023-05-22T05:54:28.273Z,16.93
2023-05-22T05:57:00.648Z,17.03
2023-05-22T05:59:30.028Z,17.12
2023-05-22T06:02:15.855Z,17.19
2023-05-22T06:04:48.885Z,17.23
2023-05-22T06:07:20.115Z,17.28
2023-05-22T06:09:51.968Z,17.33
2023-05-22T06:12:38.416Z,17.42
2023-05-22T06:15:09.210Z,17.52
2023-05-22T06:17:38.503Z,17.64
2023-05-22T06:20:07.407Z,17.76
2023-05-22T06:22:38.443Z,17.91
2023-05-22T06:25:07.227Z,18.09
2023-05-22T06:27:36.308Z,18.33
2023-05-22T06:30:04.955Z,18.59
2023-05-22T06:32:35.752Z,18.73
2023-05-22T06:35:04.668Z,18.81
2023-05-22T06:37:36.046Z,18.91
2023-05-22T06:40:04.517Z,19.00
2023-05-22T06:42:39.721Z,19.09
2023-05-22T06:45:22.958Z,19.13
2023-05-22T06:48:09.661Z,19.18
2023-05-22T06:50:41.253Z,19.17
2023-05-22T06:53:09.135Z,19.18
2023-05-22T06:55:37.001Z,19.20
2023-05-22T06:58:11.761Z,19.28
2023-05-22T07:00:40.423Z,19.40
2023-05-22T07:03:15.662Z,19.51
2023-05-22T07:05:57.858Z,19.54
2023-05-22T07:08:27.794Z,19.49
2023-05-22T07:10:56.986Z,19.48
2023-05-22T07:13:25.163Z,19.60
2023-05-22T07:15:53.298Z,19.71
2023-05-22T07:18:21.756Z,19.82
2023-05-22T07:20:50.022Z,19.93
2023-05-22T07:23:20.777Z,19.97
2023-05-22T07:25:51.940Z,19.98
2023-05-22T07:28:21.352Z,20.09
2023-05-22T07:30:57.312Z,20.26
2023-05-22T07:33:26.785Z,20.40
2023-05-22T07:35:55.441Z,20.59
2023-05-22T07:38:23.403Z,20.74
2023-05-22T07:40:57.614Z,20.85
2023-05-22T07:43:26.966Z,21.05
2023-05-22T07:45:55.658Z,21.21
2023-05-22T07:48:29.792Z,21.24
2023-05-22T07:50:57.340Z,21.24
2023-05-22T07:53:25.636Z,21.29
2023-05-22T07:55:55.802Z,21.35
2023-05-22T07:58:24.402Z,21.32
2023-05-22T08:00:53.375Z,21.32
2023-05-22T08:03:23.797Z,21.47
2023-05-22T08:05:51.621Z,21.64
2023-05-22T08:08:19.491Z,21.68
2023-05-22T08:11:03.243Z,21.59
2023-05-22T08:13:33.589Z,21.56
2023-05-22T08:16:01.747Z,21.63
2023-05-22T08:18:30.236Z,21.74
2023-05-22T08:20:58.135Z,21.85
2023-05-22T08:23:25.470Z,21.83
2023-05-22T08:25:59.042Z,21.85
2023-05-22T08:28:29.716Z,21.94
2023-05-22T08:30:59.705Z,22.08
2023-05-22T08:33:27.181Z,22.21
2023-05-22T08:35:55.222Z,22.39
2023-05-22T08:38:22.701Z,22.52
2023-05-22T08:40:50.880Z,22.67
2023-05-22T08:43:21.301Z,23.03
2023-05-22T08:46:00.296Z,23.54
2023-05-22T08:48:31.109Z,23.89
2023-05-22T08:51:04.500Z,24.08
2023-05-22T08:53:36.821Z,24.39
2023-05-22T08:56:06.249Z,24.69
2023-05-22T08:58:35.766Z,24.71
2023-05-22T09:01:03.836Z,24.71
2023-05-22T09:03:35.495Z,24.74
2023-05-22T09:06:04.107Z,24.83
2023-05-22T09:08:31.740Z,24.79
2023-05-22T09:11:00.170Z,24.76
2023-05-22T09:13:29.315Z,24.94
2023-05-22T09:16:01.320Z,25.27
2023-05-22T09:18:30.797Z,25.56
2023-05-22T09:20:59.241Z,25.64
2023-05-22T09:23:28.481Z,25.53
2023-05-22T09:25:57.335Z,25.39
2023-05-22T09:28:25.322Z,25.20
2023-05-22T09:30:53.902Z,24.95
2023-05-22T09:33:22.934Z,24.80
2023-05-22T09:35:54.049Z,24.80
2023-05-22T09:38:30.549Z,24.76
2023-05-22T09:40:58.671Z,24.42
2023-05-22T09:43:27.606Z,24.12
2023-05-22T09:46:01.341Z,24.03
2023-05-22T09:48:29.077Z,24.13
2023-05-22T09:50:57.011Z,24.18
2023-05-22T09:53:28.132Z,24.10
2023-05-22T09:56:00.761Z,24.02
2023-05-22T09:58:31.406Z,23.88
2023-05-22T10:00:58.965Z,23.81
2023-05-22T10:03:28.940Z,23.85
2023-05-22T10:05:57.363Z,23.87
2023-05-22T10:08:34.708Z,23.86
2023-05-22T10:11:07.543Z,23.97
2023-05-22T10:13:36.358Z,24.16
2023-05-22T10:16:08.125Z,24.28
2023-05-22T10:18:35.810Z,24.44
2023-05-22T10:21:04.042Z,24.70
2023-05-22T10:23:31.991Z,24.95
2023-05-22T10:26:01.704Z,25.11
2023-05-22T10:28:33.984Z,25.32
2023-05-22T10:31:05.683Z,25.74
2023-05-22T10:33:55.632Z,25.94
2023-05-22T10:36:27.237Z,25.95
2023-05-22T10:39:33.940Z,25.79
2023-05-22T10:42:01.436Z,25.37
2023-05-22T10:44:31.385Z,25.05
2023-05-22T10:46:59.480Z,24.82
2023-05-22T10:49:29.393Z,24.69
2023-05-22T10:51:58.354Z,24.69
2023-05-22T10:54:43.157Z,24.60
2023-05-22T10:57:11.999Z,24.57
2023-05-22T10:59:39.443Z,24.60
2023-05-22T11:02:37.151Z,24.42
2023-05-22T11:05:22.843Z,24.09
2023-05-22T11:07:51.052Z,23.83
2023-05-22T11:10:28.544Z,23.66
2023-05-22T11:13:14.419Z,23.62
2023-05-22T11:15:45.912Z,23.62
2023-05-22T11:18:14.772Z,23.60
2023-05-22T11:20:43.768Z,23.65
2023-05-22T11:23:11.659Z,23.81
2023-05-22T11:25:40.813Z,23.99
2023-05-22T11:28:08.376Z,24.13
2023-05-22T11:30:36.911Z,24.33
2023-05-22T11:33:05.667Z,24.42
2023-05-22T11:35:35.183Z,24.37
2023-05-22T11:38:09.971Z,24.33
2023-05-22T11:40:38.776Z,24.38
2023-05-22T11:43:08.727Z,24.44
2023-05-22T11:45:40.372Z,24.52
2023-05-22T11:48:08.949Z,24.59
2023-05-22T11:50:42.510Z,24.57
2023-05-22T11:53:11.337Z,24.44
2023-05-22T11:55:39.236Z,24.27
2023-05-22T11:58:07.611Z,24.17
2023-05-22T12:00:35.581Z,24.10
2023-05-22T12:03:03.504Z,24.04
2023-05-22T12:05:34.546Z,24.00
2023-05-22T12:08:03.560Z,24.01
2023-05-22T12:10:32.234Z,23.99
2023-05-22T12:13:00.428Z,23.92
2023-05-22T12:15:28.900Z,23.79
2023-05-22T12:17:57.278Z,23.62
2023-05-22T12:20:31.212Z,23.47
2023-05-22T12:23:00.170Z,23.42
2023-05-22T12:25:34.272Z,23.40
2023-05-22T12:28:04.189Z,23.26
2023-05-22T12:30:41.303Z,23.11
2023-05-22T12:33:14.700Z,22.97
2023-05-22T12:35:42.931Z,22.87
2023-05-22T12:38:11.779Z,22.84
2023-05-22T12:40:39.948Z,22.83
2023-05-22T12:43:08.169Z,22.86
2023-05-22T12:45:36.785Z,22.88
2023-05-22T12:48:05.414Z,22.85
2023-05-22T12:50:33.329Z,22.81
2023-05-22T12:53:04.471Z,22.68
2023-05-22T12:55:33.509Z,22.44
2023-05-22T12:58:02.140Z,22.22
2023-05-22T13:00:31.118Z,22.07
2023-05-22T13:03:00.895Z,21.94
2023-05-22T13:05:29.872Z,21.84
2023-05-22T13:07:58.506Z,21.75
2023-05-22T13:10:28.155Z,21.68
2023-05-22T13:12:59.068Z,21.63
2023-05-22T13:15:29.736Z,21.58
2023-05-22T13:17:59.623Z,21.54
2023-05-22T13:20:29.341Z,21.52
2023-05-22T13:22:58.902Z,21.51
2023-05-22T13:25:35.625Z,21.43
2023-05-22T13:28:04.025Z,21.37
2023-05-22T13:30:33.493Z,21.32
2023-05-22T13:33:02.500Z,21.30
2023-05-22T13:35:30.810Z,21.29
2023-05-22T13:37:58.557Z,21.29
2023-05-22T13:40:26.690Z,21.29
2023-05-22T13:42:55.131Z,21.28
2023-05-22T13:45:24.261Z,21.27
2023-05-22T13:47:52.234Z,21.26
2023-05-22T13:50:20.100Z,21.24
2023-05-22T13:52:48.074Z,21.22
2023-05-22T13:55:16.758Z,21.19
2023-05-22T13:57:44.490Z,21.17
2023-05-22T14:00:13.604Z,21.15
2023-05-22T14:02:43.804Z,21.13
2023-05-22T14:05:12.327Z,21.13
2023-05-22T14:07:40.426Z,21.14
2023-05-22T14:10:08.931Z,21.14
2023-05-22T14:12:37.519Z,21.16
2023-05-22T14:15:06.533Z,21.19
2023-05-22T14:17:36.915Z,21.20
2023-05-22T14:20:05.882Z,21.24
2023-05-22T14:22:41.386Z,21.27
2023-05-22T14:25:13.851Z,21.30
2023-05-22T14:27:42.427Z,21.34
2023-05-22T14:30:13.835Z,21.36
2023-05-22T14:32:44.190Z,21.38
2023-05-22T14:35:12.898Z,21.40
2023-05-22T14:37:41.602Z,21.42
2023-05-22T14:40:12.797Z,21.44
2023-05-22T14:42:40.960Z,21.45
2023-05-22T14:45:09.556Z,21.47
2023-05-22T14:47:37.828Z,21.51
2023-05-22T14:52:42.307Z,21.59
2023-05-22T14:55:10.430Z,21.59
2023-05-22T14:57:38.076Z,21.60
2023-05-22T15:00:09.233Z,21.62
2023-05-22T15:02:37.790Z,21.65
2023-05-22T15:05:07.380Z,21.67
2023-05-22T15:07:44.059Z,21.69
2023-05-22T15:10:14.668Z,21.71
2023-05-22T15:12:44.205Z,21.71
2023-05-22T15:15:12.740Z,21.72
2023-05-22T15:17:42.893Z,21.73
2023-05-22T15:20:11.477Z,21.74
2023-05-22T15:22:40.429Z,21.75
2023-05-22T15:25:12.645Z,21.77
2023-05-22T15:27:40.952Z,21.77
2023-05-22T15:30:12.646Z,21.77
2023-05-22T15:32:40.423Z,21.77
2023-05-22T15:35:10.929Z,21.76
2023-05-22T15:37:41.195Z,21.76
2023-05-22T15:40:17.902Z,21.75
2023-05-22T15:42:46.933Z,21.75
2023-05-22T15:45:14.743Z,21.73
2023-05-22T15:47:43.339Z,21.72
2023-05-22T15:50:11.706Z,21.70
2023-05-22T15:52:40.002Z,21.67
2023-05-22T15:55:08.466Z,21.64
2023-05-22T15:57:37.120Z,21.60
2023-05-22T16:00:06.552Z,21.56
2023-05-22T16:02:35.164Z,21.53
2023-05-22T16:05:03.373Z,21.50
2023-05-22T16:07:31.927Z,21.45
2023-05-22T16:10:00.227Z,21.41
2023-05-22T16:12:28.166Z,21.37
2023-05-22T16:15:00.221Z,21.33
2023-05-22T16:17:29.816Z,21.28
2023-05-22T16:19:57.453Z,21.24
2023-05-22T16:22:33.054Z,21.20
2023-05-22T16:25:08.789Z,21.16
2023-05-22T16:27:37.488Z,21.11
2023-05-22T16:30:05.688Z,21.07
2023-05-22T16:32:34.318Z,21.04
2023-05-22T16:35:02.936Z,21.00
2023-05-22T16:37:30.985Z,20.98
2023-05-22T16:39:58.916Z,20.95
2023-05-22T16:42:26.876Z,20.92
2023-05-22T16:44:54.765Z,20.90
2023-05-22T16:47:23.097Z,20.87
2023-05-22T16:49:51.238Z,20.86
2023-05-22T16:52:22.686Z,20.85
2023-05-22T16:54:50.530Z,20.83
2023-05-22T16:57:18.341Z,20.82
2023-05-22T16:59:46.519Z,20.79
2023-05-22T17:02:14.399Z,20.76
2023-05-22T17:04:42.624Z,20.73
2023-05-22T17:07:10.852Z,20.70
2023-05-22T17:09:38.678Z,20.67
2023-05-22T17:12:06.976Z,20.61
2023-05-22T17:14:34.951Z,20.54
2023-05-22T17:17:04.201Z,20.49
2023-05-22T17:19:33.090Z,20.44
2023-05-22T17:22:01.323Z,20.41
2023-05-22T17:24:30.198Z,20.38
2023-05-22T17:26:58.090Z,20.35
2023-05-22T17:29:27.983Z,20.31
2023-05-22T17:31:55.983Z,20.29
2023-05-22T17:34:24.742Z,20.27
2023-05-22T17:36:53.275Z,20.27
2023-05-22T17:39:22.077Z,20.27
2023-05-22T17:41:50.283Z,20.27
2023-05-22T17:44:18.077Z,20.26
2023-05-22T17:46:46.391Z,20.25
2023-05-22T17:49:14.802Z,20.22
2023-05-22T17:51:42.727Z,20.19
2023-05-22T17:54:10.646Z,20.16
2023-05-22T17:56:38.390Z,20.13
2023-05-22T17:59:07.277Z,20.11
2023-05-22T18:01:35.340Z,20.07
2023-05-22T18:04:04.940Z,20.05
2023-05-22T18:06:33.161Z,20.01
2023-05-22T18:09:04.660Z,19.98
2023-05-22T18:11:32.826Z,19.96
2023-05-22T18:14:00.778Z,19.93
2023-05-22T18:16:29.090Z,19.92
2023-05-22T18:18:57.675Z,19.89
2023-05-22T18:21:25.739Z,19.87
2023-05-22T18:23:56.354Z,19.85
2023-05-22T18:26:24.382Z,19.84
2023-05-22T18:28:52.657Z,19.82
2023-05-22T18:31:20.937Z,19.81
2023-05-22T18:33:48.739Z,19.80
2023-05-22T18:36:17.120Z,19.79
2023-05-22T18:38:45.749Z,19.77
2023-05-22T18:41:13.611Z,19.76
2023-05-22T18:43:43.723Z,19.74
2023-05-22T18:46:11.565Z,19.73
2023-05-22T18:48:39.490Z,19.69
2023-05-22T18:51:07.992Z,19.64
2023-05-22T18:53:36.061Z,19.58
2023-05-22T18:56:03.982Z,19.52
2023-05-22T18:58:32.026Z,19.49
2023-05-22T19:01:00.022Z,19.47
2023-05-22T19:03:27.911Z,19.44
2023-05-22T19:05:56.194Z,19.43
2023-05-22T19:08:26.774Z,19.43
2023-05-22T19:10:57.746Z,19.43
2023-05-22T19:15:48.587Z,19.46
2023-05-22T19:18:17.805Z,19.41
2023-05-22T19:20:45.975Z,19.38
2023-05-22T19:23:15.964Z,19.36
2023-05-22T19:25:43.942Z,19.34
2023-05-22T19:28:11.676Z,19.31
2023-05-22T19:30:41.893Z,19.28
2023-05-22T19:33:10.863Z,19.25
2023-05-22T19:35:39.052Z,19.23
2023-05-22T19:38:07.126Z,19.23
2023-05-22T19:40:35.698Z,19.23
2023-05-22T19:43:04.063Z,19.22
2023-05-22T19:45:31.839Z,19.22
2023-05-22T19:48:00.153Z,19.20
2023-05-22T19:50:28.218Z,19.18
2023-05-22T19:52:56.466Z,19.14
2023-05-22T19:55:24.835Z,19.11
2023-05-22T19:57:52.660Z,19.10
2023-05-22T20:00:21.327Z,19.10
2023-05-22T20:02:50.241Z,19.10
2023-05-22T20:05:19.307Z,19.09
2023-05-22T20:07:48.771Z,19.03
2023-05-22T20:10:16.750Z,18.95
2023-05-22T20:12:44.996Z,18.89
2023-05-22T20:15:15.225Z,18.86
2023-05-22T20:17:47.813Z,18.83
2023-05-22T20:20:15.886Z,18.80
2023-05-22T20:22:43.960Z,18.78
2023-05-22T20:25:13.336Z,18.76
2023-05-22T20:27:41.018Z,18.73
2023-05-22T20:30:12.286Z,18.69
2023-05-22T20:32:42.871Z,18.66
2023-05-22T20:35:11.167Z,18.62
2023-05-22T20:37:42.019Z,18.59
2023-05-22T20:40:10.915Z,18.53
2023-05-22T20:42:39.487Z,18.45
2023-05-22T20:45:07.906Z,18.38
2023-05-22T20:47:36.945Z,18.29
2023-05-22T20:50:06.923Z,18.20
2023-05-22T20:52:37.484Z,18.13
2023-05-22T20:55:05.651Z,18.07
2023-05-22T21:00:58.823Z,17.92
2023-05-22T21:03:27.674Z,17.82
2023-05-22T21:05:55.661Z,17.76
2023-05-22T21:08:23.537Z,17.70
2023-05-22T21:10:51.876Z,17.65
2023-05-22T21:13:20.304Z,17.62
2023-05-22T21:15:48.517Z,17.58
2023-05-22T21:18:16.240Z,17.54
2023-05-22T21:20:44.087Z,17.50
2023-05-22T21:23:12.209Z,17.46
2023-05-22T21:25:40.565Z,17.43
2023-05-22T21:28:09.018Z,17.39
2023-05-22T21:30:37.134Z,17.34
2023-05-22T21:33:05.952Z,17.28
2023-05-22T21:35:34.166Z,17.22
2023-05-22T21:38:03.014Z,17.16
2023-05-22T21:40:31.889Z,17.11
2023-05-22T21:43:00.002Z,17.07
2023-05-22T21:45:28.097Z,17.01
2023-05-22T21:47:56.371Z,16.97
2023-05-22T21:50:24.815Z,16.93
2023-05-22T21:52:53.312Z,16.88
2023-05-22T21:55:21.646Z,16.84
2023-05-22T21:57:50.427Z,16.80
2023-05-22T22:00:19.170Z,16.77
2023-05-22T22:02:46.907Z,16.75
2023-05-22T22:05:14.960Z,16.71
2023-05-22T22:07:43.528Z,16.68
2023-05-22T22:10:11.928Z,16.63
2023-05-22T22:12:39.579Z,16.59
2023-05-22T22:15:08.277Z,16.56
2023-05-22T22:17:36.357Z,16.54
2023-05-22T22:20:06.000Z,16.51
2023-05-22T22:22:33.692Z,16.49
2023-05-22T22:25:01.972Z,16.47
2023-05-22T22:27:29.938Z,16.47
2023-05-22T22:29:57.776Z,16.47
2023-05-22T22:32:25.888Z,16.47
2023-05-22T22:34:55.424Z,16.49
2023-05-22T22:37:23.245Z,16.51
2023-05-22T22:39:51.153Z,16.53
2023-05-22T22:42:19.023Z,16.54
2023-05-22T22:44:47.239Z,16.54
2023-05-22T22:47:14.999Z,16.52
2023-05-22T22:49:43.289Z,16.51
2023-05-22T22:52:11.134Z,16.51
2023-05-22T22:54:39.641Z,16.49
2023-05-22T22:57:08.095Z,16.47
2023-05-22T22:59:38.632Z,16.46
2023-05-22T23:02:06.537Z,16.45
2023-05-22T23:04:34.490Z,16.45
2023-05-22T23:07:03.345Z,16.43
2023-05-22T23:09:31.531Z,16.42
2023-05-22T23:11:59.841Z,16.40
2023-05-22T23:14:28.525Z,16.39
2023-05-22T23:16:56.683Z,16.39
2023-05-22T23:19:24.552Z,16.38
2023-05-22T23:21:52.227Z,16.38
2023-05-22T23:24:19.995Z,16.35
2023-05-22T23:26:48.335Z,16.33
2023-05-22T23:29:16.829Z,16.28
2023-05-22T23:31:44.716Z,16.24
2023-05-22T23:34:12.439Z,16.19
2023-05-22T23:36:40.580Z,16.14
2023-05-22T23:39:08.763Z,16.11
2023-05-22T23:41:36.523Z,16.09
2023-05-22T23:44:04.577Z,16.06
2023-05-22T23:46:33.242Z,16.04
2023-05-22T23:49:01.374Z,16.02
2023-05-22T23:51:29.098Z,15.99
2023-05-22T23:53:56.699Z,15.97
2023-05-22T23:56:24.553Z,15.96
2023-05-22T23:58:52.358Z,15.95
